地図

経路データ

SID SEASON NUMBER BASIN SUBBASIN NAME ISO_TIME NATURE LAT LON WMO_WIND WMO_PRES WMO_AGENCY TRACK_TYPE DIST2LAND LANDFALL IFLAG USA_AGENCY USA_ATCF_ID USA_LAT USA_LON USA_RECORD USA_STATUS USA_WIND USA_PRES USA_SSHS USA_R34_NE USA_R34_SE USA_R34_SW USA_R34_NW USA_R50_NE USA_R50_SE USA_R50_SW USA_R50_NW USA_R64_NE USA_R64_SE USA_R64_SW USA_R64_NW USA_POCI USA_ROCI USA_RMW USA_EYE TOKYO_LAT TOKYO_LON TOKYO_GRADE TOKYO_WIND TOKYO_PRES TOKYO_R50_DIR TOKYO_R50_LONG TOKYO_R50_SHORT TOKYO_R30_DIR TOKYO_R30_LONG TOKYO_R30_SHORT TOKYO_LAND CMA_LAT CMA_LON CMA_CAT CMA_WIND CMA_PRES HKO_LAT HKO_LON HKO_CAT HKO_WIND HKO_PRES NEWDELHI_LAT NEWDELHI_LON NEWDELHI_GRADE NEWDELHI_WIND NEWDELHI_PRES NEWDELHI_CI NEWDELHI_DP NEWDELHI_POCI REUNION_LAT REUNION_LON REUNION_TYPE REUNION_WIND REUNION_PRES REUNION_TNUM REUNION_CI REUNION_RMW REUNION_R34_NE REUNION_R34_SE REUNION_R34_SW REUNION_R34_NW REUNION_R50_NE REUNION_R50_SE REUNION_R50_SW REUNION_R50_NW REUNION_R64_NE REUNION_R64_SE REUNION_R64_SW REUNION_R64_NW BOM_LAT BOM_LON BOM_TYPE BOM_WIND BOM_PRES BOM_TNUM BOM_CI BOM_RMW BOM_R34_NE BOM_R34_SE BOM_R34_SW BOM_R34_NW BOM_R50_NE BOM_R50_SE BOM_R50_SW BOM_R50_NW BOM_R64_NE BOM_R64_SE BOM_R64_SW BOM_R64_NW BOM_ROCI BOM_POCI BOM_EYE BOM_POS_METHOD BOM_PRES_METHOD NADI_LAT NADI_LON NADI_CAT NADI_WIND NADI_PRES WELLINGTON_LAT WELLINGTON_LON WELLINGTON_WIND WELLINGTON_PRES DS824_LAT DS824_LON DS824_STAGE DS824_WIND DS824_PRES TD9636_LAT TD9636_LON TD9636_STAGE TD9636_WIND TD9636_PRES TD9635_LAT TD9635_LON TD9635_WIND TD9635_PRES TD9635_ROCI NEUMANN_LAT NEUMANN_LON NEUMANN_CLASS NEUMANN_WIND NEUMANN_PRES MLC_LAT MLC_LON MLC_CLASS MLC_WIND MLC_PRES USA_GUST BOM_GUST BOM_GUST_PER REUNION_GUST REUNION_GUST_PER USA_SEAHGT USA_SEARAD_NE USA_SEARAD_SE USA_SEARAD_SW USA_SEARAD_NW STORM_SPEED STORM_DIR
1947221N13285 1947 51 NA CS NOT_NAMED 1947-08-09 06:00:00 TS 12.7000 -75.5000 25 hurdat_atl main 201 201 O_____________ hurdat_atl AL021947 12.7000 -75.5000 TD 25 -1 7 294
1947221N13285 1947 51 NA CS NOT_NAMED 1947-08-09 09:00:00 TS 12.8526 -75.8499 main 234 234 P_____________ AL021947 12.8526 -75.8499 TD 25 -1 7 294
1947221N13285 1947 51 NA CS NOT_NAMED 1947-08-09 12:00:00 TS 13.0000 -76.2000 25 hurdat_atl main 264 264 O_____________ hurdat_atl AL021947 13.0000 -76.2000 TD 25 -1 7 293
1947221N13285 1947 51 NA CS NOT_NAMED 1947-08-09 15:00:00 TS 13.1425 -76.5501 main 293 293 P_____________ AL021947 13.1425 -76.5501 TD 25 -1 7 294
1947221N13285 1947 51 NA CS NOT_NAMED 1947-08-09 18:00:00 TS 13.3000 -76.9000 25 hurdat_atl main 329 329 O_____________ hurdat_atl AL021947 13.3000 -76.9000 TD 25 -1 8 297
1947221N13285 1947 51 NA CS NOT_NAMED 1947-08-09 21:00:00 TS 13.4925 -77.2500 main 372 372 P_____________ AL021947 13.4925 -77.2500 TD 25 -1 8 300
1947221N13285 1947 51 NA CS NOT_NAMED 1947-08-10 00:00:00 TS 13.7000 -77.6000 25 hurdat_atl main 409 409 O_____________ hurdat_atl AL021947 13.7000 -77.6000 TD 25 -1 8 301
1947221N13285 1947 51 NA CS NOT_NAMED 1947-08-10 03:00:00 TS 13.9000 -77.9501 main 433 416 P_____________ AL021947 13.9000 -77.9501 TD 25 -1 8 300
1947221N13285 1947 51 NA CS NOT_NAMED 1947-08-10 06:00:00 TS 14.1000 -78.3000 25 hurdat_atl main 419 408 O_____________ hurdat_atl AL021947 14.1000 -78.3000 TD 25 -1 8 300
1947221N13285 1947 51 NA CS NOT_NAMED 1947-08-10 09:00:00 TS 14.2924 -78.6501 main 412 401 P_____________ AL021947 14.2924 -78.6501 TD 25 -1 8 301
1947221N13285 1947 51 NA CS NOT_NAMED 1947-08-10 12:00:00 TS 14.5000 -79.0000 25 hurdat_atl main 405 392 O_____________ hurdat_atl AL021947 14.5000 -79.0000 TD 25 -1 8 304
1947221N13285 1947 51 NA CS NOT_NAMED 1947-08-10 15:00:00 TS 14.7424 -79.3500 main 399 365 P_____________ AL021947 14.7424 -79.3500 TD 25 -1 8 306
1947221N13285 1947 51 NA CS NOT_NAMED 1947-08-10 18:00:00 TS 15.0000 -79.7000 25 hurdat_atl main 365 333 O_____________ hurdat_atl AL021947 15.0000 -79.7000 TD 25 -1 8 307
1947221N13285 1947 51 NA CS NOT_NAMED 1947-08-10 21:00:00 TS 15.2499 -80.0426 main 333 295 P_____________ AL021947 15.2499 -80.0426 TD 27 -1 8 307
1947221N13285 1947 51 NA CS NOT_NAMED 1947-08-11 00:00:00 TS 15.5000 -80.4000 30 hurdat_atl main 295 258 O_____________ hurdat_atl AL021947 15.5000 -80.4000 TD 30 -1 9 305
1947221N13285 1947 51 NA CS NOT_NAMED 1947-08-11 03:00:00 TS 15.7500 -80.7926 main 258 232 P_____________ AL021947 15.7500 -80.7926 TD 30 -1 9 303
1947221N13285 1947 51 NA CS NOT_NAMED 1947-08-11 06:00:00 TS 16.0000 -81.2000 30 hurdat_atl main 232 209 O_____________ hurdat_atl AL021947 16.0000 -81.2000 TD 30 -1 9 302
1947221N13285 1947 51 NA CS NOT_NAMED 1947-08-11 09:00:00 TS 16.2348 -81.5853 main 209 201 P_____________ AL021947 16.2348 -81.5853 TD 30 -1 9 303
1947221N13285 1947 51 NA CS NOT_NAMED 1947-08-11 12:00:00 TS 16.5000 -82.0000 30 hurdat_atl main 201 189 O_____________ hurdat_atl AL021947 16.5000 -82.0000 TD 30 -1 10 305
1947221N13285 1947 51 NA CS NOT_NAMED 1947-08-11 15:00:00 TS 16.8199 -82.4703 main 193 193 P_____________ AL021947 16.8199 -82.4703 TD 30 -1 12 306
1947221N13285 1947 51 NA CS NOT_NAMED 1947-08-11 18:00:00 TS 17.2000 -83.0000 30 hurdat_atl main 208 202 O_____________ hurdat_atl AL021947 17.2000 -83.0000 TD 30 -1 13 307
1947221N13285 1947 51 NA CS NOT_NAMED 1947-08-11 21:00:00 TS 17.6275 -83.5852 main 214 214 P_____________ AL021947 17.6275 -83.5852 TD 32 -1 15 308
1947221N13285 1947 51 NA CS NOT_NAMED 1947-08-12 00:00:00 TS 18.1000 -84.2000 35 hurdat_atl main 251 251 O_____________ hurdat_atl AL021947 18.1000 -84.2000 TS 35 0 15 311
1947221N13285 1947 51 NA CS NOT_NAMED 1947-08-12 03:00:00 TS 18.6223 -84.7999 main 291 214 P_____________ AL021947 18.6223 -84.7999 TS 37 0 15 311
1947221N13285 1947 51 NA CS NOT_NAMED 1947-08-12 06:00:00 TS 19.1000 -85.4000 40 hurdat_atl main 214 147 O_____________ hurdat_atl AL021947 19.1000 -85.4000 TS 40 0 14 307
1947221N13285 1947 51 NA CS NOT_NAMED 1947-08-12 09:00:00 TS 19.4555 -85.9866 main 146 86 P_____________ AL021947 19.4555 -85.9866 TS 42 0 13 298
1947221N13285 1947 51 NA CS NOT_NAMED 1947-08-12 12:00:00 TS 19.7000 -86.6000 45 hurdat_atl main 86 31 O_____________ hurdat_atl AL021947 19.7000 -86.6000 TS 45 0 13 288
1947221N13285 1947 51 NA CS NOT_NAMED 1947-08-12 15:00:00 TS 19.8554 -87.2824 main 20 0 P_____________ AL021947 19.8554 -87.2824 TS 45 0 13 283
1947221N13285 1947 51 NA CS NOT_NAMED 1947-08-12 16:00:00 TS 19.9000 -87.5000 45 hurdat_atl main 0 0 O_____________ hurdat_atl AL021947 19.9000 -87.5000 L TS 45 0 12 284
1947221N13285 1947 51 NA NA NOT_NAMED 1947-08-12 18:00:00 TS 20.0000 -87.9000 40 hurdat_atl main 0 0 O_____________ hurdat_atl AL021947 20.0000 -87.9000 TS 40 0 13 284
1947221N13285 1947 51 NA NA NOT_NAMED 1947-08-12 21:00:00 TS 20.1500 -88.5768 main 0 0 P_____________ AL021947 20.1500 -88.5768 TS 40 0 13 283
1947221N13285 1947 51 NA NA NOT_NAMED 1947-08-13 00:00:00 TS 20.3000 -89.3000 40 hurdat_atl main 0 0 O_____________ hurdat_atl AL021947 20.3000 -89.3000 TS 40 0 14 283
1947221N13285 1947 51 NA NA NOT_NAMED 1947-08-13 03:00:00 TS 20.4574 -90.0150 main 0 0 P_____________ AL021947 20.4574 -90.0150 TS 42 0 13 283
1947221N13285 1947 51 NA GM NOT_NAMED 1947-08-13 06:00:00 TS 20.6000 -90.7000 45 hurdat_atl main 23 23 O_____________ hurdat_atl AL021947 20.6000 -90.7000 TS 45 0 13 282
1947221N13285 1947 51 NA GM NOT_NAMED 1947-08-13 09:00:00 TS 20.7223 -91.3300 main 86 86 P_____________ AL021947 20.7223 -91.3300 TS 47 0 11 280
1947221N13285 1947 51 NA GM NOT_NAMED 1947-08-13 12:00:00 TS 20.8000 -91.9000 50 hurdat_atl main 149 149 O_____________ hurdat_atl AL021947 20.8000 -91.9000 TS 50 0 10 275
1947221N13285 1947 51 NA GM NOT_NAMED 1947-08-13 15:00:00 TS 20.8148 -92.4227 main 200 200 P_____________ AL021947 20.8148 -92.4227 TS 55 0 9 270
1947221N13285 1947 51 NA GM NOT_NAMED 1947-08-13 18:00:00 TS 20.8000 -92.9000 60 hurdat_atl main 246 246 O_____________ hurdat_atl AL021947 20.8000 -92.9000 TS 60 0 9 268
1947221N13285 1947 51 NA GM NOT_NAMED 1947-08-13 21:00:00 TS 20.7775 -93.3801 main 256 256 P_____________ AL021947 20.7775 -93.3801 TS 65 1 8 270
1947221N13285 1947 51 NA GM NOT_NAMED 1947-08-14 00:00:00 TS 20.8000 -93.8000 70 hurdat_atl main 271 264 O_____________ hurdat_atl AL021947 20.8000 -93.8000 HU 70 1 7 281
1947221N13285 1947 51 NA GM NOT_NAMED 1947-08-14 03:00:00 TS 20.9123 -94.1225 main 264 247 P_____________ AL021947 20.9123 -94.1225 HU 75 1 6 298
1947221N13285 1947 51 NA GM NOT_NAMED 1947-08-14 06:00:00 TS 21.1000 -94.4000 80 hurdat_atl main 247 236 O_____________ hurdat_atl AL021947 21.1000 -94.4000 HU 80 1 7 310
1947221N13285 1947 51 NA GM NOT_NAMED 1947-08-14 09:00:00 TS 21.3499 -94.6850 main 236 235 P_____________ AL021947 21.3499 -94.6850 HU 85 2 8 312
1947221N13285 1947 51 NA GM NOT_NAMED 1947-08-14 12:00:00 TS 21.6000 -95.0000 90 hurdat_atl main 235 197 O_____________ hurdat_atl AL021947 21.6000 -95.0000 HU 90 2 8 303
1947221N13285 1947 51 NA GM NOT_NAMED 1947-08-14 15:00:00 TS 21.7800 -95.3850 main 197 158 P_____________ AL021947 21.7800 -95.3850 HU 90 2 8 292
1947221N13285 1947 51 NA GM NOT_NAMED 1947-08-14 18:00:00 TS 21.9000 -95.8000 90 977 hurdat_atl main 158 122 O_____________ hurdat_atl AL021947 21.9000 -95.8000 HU 90 977 2 8 285
1947221N13285 1947 51 NA GM NOT_NAMED 1947-08-14 21:00:00 TS 21.9800 -96.2150 main 122 84 P_____________ AL021947 21.9800 -96.2150 HU 92 2 7 278
1947221N13285 1947 51 NA GM NOT_NAMED 1947-08-15 00:00:00 TS 22.0000 -96.6000 95 hurdat_atl main 84 60 O_____________ hurdat_atl AL021947 22.0000 -96.6000 HU 95 2 7 270
1947221N13285 1947 51 NA GM NOT_NAMED 1947-08-15 03:00:00 TS 21.9823 -96.9279 main 60 30 P_____________ AL021947 21.9823 -96.9279 HU 95 2 6 260
1947221N13285 1947 51 NA GM NOT_NAMED 1947-08-15 06:00:00 TS 21.9000 -97.2000 95 hurdat_atl main 30 10 O_____________ hurdat_atl AL021947 21.9000 -97.2000 HU 95 2 5 242
1947221N13285 1947 51 NA GM NOT_NAMED 1947-08-15 09:00:00 TS 21.7535 -97.3975 main 10 0 P_____________ AL021947 21.7535 -97.3975 HU 95 2 5 235
1947221N13285 1947 51 NA GM NOT_NAMED 1947-08-15 10:00:00 TS 21.7000 -97.5000 95 hurdat_atl main 0 0 O_____________ hurdat_atl AL021947 21.7000 -97.5000 L HU 95 2 8 248
1947221N13285 1947 51 NA NA NOT_NAMED 1947-08-15 12:00:00 TS 21.6000 -97.8000 85 hurdat_atl main 0 0 O_____________ hurdat_atl AL021947 21.6000 -97.8000 HU 85 2 7 246
1947221N13285 1947 51 NA NA NOT_NAMED 1947-08-15 15:00:00 TS 21.4499 -98.1094 main 0 0 P_____________ AL021947 21.4499 -98.1094 HU 75 1 6 237
1947221N13285 1947 51 NA NA NOT_NAMED 1947-08-15 18:00:00 TS 21.3000 -98.3000 65 hurdat_atl main 0 0 O_____________ hurdat_atl AL021947 21.3000 -98.3000 HU 65 1 4 231
1947221N13285 1947 51 NA NA NOT_NAMED 1947-08-15 21:00:00 TS 21.1800 -98.4724 main 0 0 P_____________ AL021947 21.1800 -98.4724 HU 55 0 4 223
1947221N13285 1947 51 NA NA NOT_NAMED 1947-08-16 00:00:00 TS 21.0000 -98.6000 45 hurdat_atl main 0 0 O_____________ hurdat_atl AL021947 21.0000 -98.6000 TS 45 0 5 204
1947221N13285 1947 51 NA NA NOT_NAMED 1947-08-16 03:00:00 TS 20.6900 -98.7051 main 0 0 P_____________ AL021947 20.6900 -98.7051 TS 37 0 7 195
1947221N13285 1947 51 NA NA NOT_NAMED 1947-08-16 06:00:00 TS 20.3000 -98.8000 30 hurdat_atl main 0 O_____________ hurdat_atl AL021947 20.3000 -98.8000 TD 30 -1 8 193

IBTrACS Databaseについて

本データベースは、米国NOAAが公開する1842年以降の世界の熱帯低気圧のベストトラックデータアーカイブInternational Best Track Archive for Climate Stewardship (IBTrACS)を、ウェブで閲覧しやすい形式に変換したものです。

最終更新日:2021-12-03